sensor_id;sensor_type;location;lat;lon;timestamp;pressure;altitude;pressure_sealevel;temperature;humidity
16525;BME280;8375;33.594;-117.718;2022-09-09T00:00:21;99015.91;;;34.44;32.63
16525;BME280;8375;33.594;-117.718;2022-09-09T00:02:59;99013.00;;;34.40;32.69
16525;BME280;8375;33.594;-117.718;2022-09-09T00:05:33;99017.91;;;34.38;32.95
16525;BME280;8375;33.594;-117.718;2022-09-09T00:08:09;99015.16;;;34.29;32.49
16525;BME280;8375;33.594;-117.718;2022-09-09T00:10:43;99007.22;;;34.24;32.80
16525;BME280;8375;33.594;-117.718;2022-09-09T00:13:19;99011.53;;;34.48;32.61
16525;BME280;8375;33.594;-117.718;2022-09-09T00:15:57;99017.38;;;34.73;32.21
16525;BME280;8375;33.594;-117.718;2022-09-09T00:18:36;99026.66;;;34.89;31.57
16525;BME280;8375;33.594;-117.718;2022-09-09T00:21:12;99028.34;;;34.99;31.21
16525;BME280;8375;33.594;-117.718;2022-09-09T00:23:46;99036.16;;;35.09;31.18
16525;BME280;8375;33.594;-117.718;2022-09-09T00:26:20;99031.38;;;35.06;31.35
16525;BME280;8375;33.594;-117.718;2022-09-09T00:28:55;99043.91;;;35.11;31.59
16525;BME280;8375;33.594;-117.718;2022-09-09T00:31:28;99049.72;;;34.73;31.62
16525;BME280;8375;33.594;-117.718;2022-09-09T00:34:05;99054.00;;;34.51;31.79
16525;BME280;8375;33.594;-117.718;2022-09-09T00:36:39;99060.75;;;34.62;31.76
16525;BME280;8375;33.594;-117.718;2022-09-09T00:39:12;99065.50;;;34.65;31.65
16525;BME280;8375;33.594;-117.718;2022-09-09T00:41:50;99057.75;;;34.64;31.53
16525;BME280;8375;33.594;-117.718;2022-09-09T00:44:30;99061.53;;;34.63;31.66
16525;BME280;8375;33.594;-117.718;2022-09-09T00:47:12;99054.13;;;34.46;31.41
16525;BME280;8375;33.594;-117.718;2022-09-09T00:49:57;99057.00;;;34.13;31.99
16525;BME280;8375;33.594;-117.718;2022-09-09T00:52:38;99066.91;;;34.03;32.19
16525;BME280;8375;33.594;-117.718;2022-09-09T00:55:12;99064.13;;;33.94;32.73
16525;BME280;8375;33.594;-117.718;2022-09-09T00:57:46;99062.22;;;33.95;32.96
16525;BME280;8375;33.594;-117.718;2022-09-09T01:00:24;99066.09;;;33.89;33.55
16525;BME280;8375;33.594;-117.718;2022-09-09T01:03:02;99059.84;;;33.79;32.74
16525;BME280;8375;33.594;-117.718;2022-09-09T01:05:42;99070.09;;;33.77;33.39
16525;BME280;8375;33.594;-117.718;2022-09-09T01:08:24;99058.84;;;33.75;33.60
16525;BME280;8375;33.594;-117.718;2022-09-09T01:10:57;99066.41;;;33.73;33.11
16525;BME280;8375;33.594;-117.718;2022-09-09T01:13:28;99061.16;;;33.68;33.71
16525;BME280;8375;33.594;-117.718;2022-09-09T01:15:59;99062.53;;;33.65;33.66
16525;BME280;8375;33.594;-117.718;2022-09-09T01:18:32;99068.59;;;33.57;33.53
16525;BME280;8375;33.594;-117.718;2022-09-09T01:21:09;99069.22;;;33.54;33.58
16525;BME280;8375;33.594;-117.718;2022-09-09T01:26:52;99071.38;;;33.38;33.51
16525;BME280;8375;33.594;-117.718;2022-09-09T01:29:23;99070.88;;;33.36;33.21
16525;BME280;8375;33.594;-117.718;2022-09-09T01:31:56;99069.06;;;33.31;33.16
16525;BME280;8375;33.594;-117.718;2022-09-09T01:34:28;99070.84;;;33.22;33.58
16525;BME280;8375;33.594;-117.718;2022-09-09T01:37:01;99062.28;;;33.20;34.05
16525;BME280;8375;33.594;-117.718;2022-09-09T01:39:31;99061.75;;;33.51;33.26
16525;BME280;8375;33.594;-117.718;2022-09-09T01:42:04;99053.25;;;33.72;32.58
16525;BME280;8375;33.594;-117.718;2022-09-09T01:44:34;99046.28;;;33.85;32.66
16525;BME280;8375;33.594;-117.718;2022-09-09T01:47:04;99049.75;;;33.99;32.48
16525;BME280;8375;33.594;-117.718;2022-09-09T01:49:33;99045.38;;;34.03;32.63
16525;BME280;8375;33.594;-117.718;2022-09-09T01:52:02;99038.44;;;34.11;32.13
16525;BME280;8375;33.594;-117.718;2022-09-09T01:54:33;99037.06;;;34.14;32.36
16525;BME280;8375;33.594;-117.718;2022-09-09T01:57:11;99036.38;;;34.08;32.21
16525;BME280;8375;33.594;-117.718;2022-09-09T01:59:51;99040.38;;;33.97;32.32
16525;BME280;8375;33.594;-117.718;2022-09-09T02:02:25;99029.56;;;33.60;33.35
16525;BME280;8375;33.594;-117.718;2022-09-09T02:04:59;99031.44;;;33.59;33.29
16525;BME280;8375;33.594;-117.718;2022-09-09T02:07:39;99031.75;;;33.44;33.03
16525;BME280;8375;33.594;-117.718;2022-09-09T02:10:11;99027.25;;;33.25;33.47
16525;BME280;8375;33.594;-117.718;2022-09-09T02:12:45;99028.13;;;33.06;33.70
16525;BME280;8375;33.594;-117.718;2022-09-09T02:15:20;99025.25;;;32.70;34.55
16525;BME280;8375;33.594;-117.718;2022-09-09T02:17:52;99024.94;;;32.57;34.50
16525;BME280;8375;33.594;-117.718;2022-09-09T02:20:23;99024.78;;;32.48;35.15
16525;BME280;8375;33.594;-117.718;2022-09-09T02:22:54;99021.25;;;32.34;35.19
16525;BME280;8375;33.594;-117.718;2022-09-09T02:25:26;99020.25;;;32.30;35.81
16525;BME280;8375;33.594;-117.718;2022-09-09T02:27:58;99007.16;;;32.23;35.80
16525;BME280;8375;33.594;-117.718;2022-09-09T02:30:28;99004.75;;;32.22;35.92
16525;BME280;8375;33.594;-117.718;2022-09-09T02:32:59;99005.44;;;32.13;36.07
16525;BME280;8375;33.594;-117.718;2022-09-09T02:35:30;99014.44;;;32.03;35.78
16525;BME280;8375;33.594;-117.718;2022-09-09T02:38:02;99014.06;;;31.91;36.10
16525;BME280;8375;33.594;-117.718;2022-09-09T02:40:32;99008.78;;;31.86;36.50
16525;BME280;8375;33.594;-117.718;2022-09-09T02:43:03;99012.38;;;31.76;36.53
16525;BME280;8375;33.594;-117.718;2022-09-09T02:45:38;99012.09;;;31.72;36.38
16525;BME280;8375;33.594;-117.718;2022-09-09T02:48:14;99006.53;;;31.69;36.81
16525;BME280;8375;33.594;-117.718;2022-09-09T02:50:52;98996.09;;;31.67;36.99
16525;BME280;8375;33.594;-117.718;2022-09-09T02:53:27;99003.91;;;31.64;37.18
16525;BME280;8375;33.594;-117.718;2022-09-09T02:56:04;98992.75;;;31.56;36.90
16525;BME280;8375;33.594;-117.718;2022-09-09T02:58:37;98997.88;;;31.53;36.99
16525;BME280;8375;33.594;-117.718;2022-09-09T03:01:05;98980.50;;;31.50;37.69
16525;BME280;8375;33.594;-117.718;2022-09-09T03:03:35;98966.97;;;31.36;37.84
16525;BME280;8375;33.594;-117.718;2022-09-09T03:06:04;98950.50;;;31.24;38.02
16525;BME280;8375;33.594;-117.718;2022-09-09T03:08:33;98929.47;;;31.12;38.00
16525;BME280;8375;33.594;-117.718;2022-09-09T03:11:02;98906.22;;;31.31;38.12
16525;BME280;8375;33.594;-117.718;2022-09-09T03:13:30;98905.22;;;31.66;37.34
16525;BME280;8375;33.594;-117.718;2022-09-09T03:16:02;98912.84;;;31.78;36.91
16525;BME280;8375;33.594;-117.718;2022-09-09T03:18:31;98939.97;;;31.95;36.23
16525;BME280;8375;33.594;-117.718;2022-09-09T03:21:00;98971.84;;;32.16;36.60
16525;BME280;8375;33.594;-117.718;2022-09-09T03:23:29;99015.38;;;32.13;37.42
16525;BME280;8375;33.594;-117.718;2022-09-09T03:25:58;99038.41;;;31.70;37.96
16525;BME280;8375;33.594;-117.718;2022-09-09T03:28:27;99041.28;;;31.55;37.79
16525;BME280;8375;33.594;-117.718;2022-09-09T03:31:01;99036.66;;;31.60;37.21
16525;BME280;8375;33.594;-117.718;2022-09-09T03:33:30;99026.09;;;31.69;37.83
16525;BME280;8375;33.594;-117.718;2022-09-09T03:36:00;99003.63;;;32.09;36.18
16525;BME280;8375;33.594;-117.718;2022-09-09T03:38:29;98995.25;;;32.48;36.15
16525;BME280;8375;33.594;-117.718;2022-09-09T03:40:58;99005.03;;;32.58;35.67
16525;BME280;8375;33.594;-117.718;2022-09-09T03:43:28;98995.41;;;32.57;35.72
16525;BME280;8375;33.594;-117.718;2022-09-09T03:45:57;98997.81;;;32.40;35.89
16525;BME280;8375;33.594;-117.718;2022-09-09T03:48:28;98997.75;;;32.45;35.90
16525;BME280;8375;33.594;-117.718;2022-09-09T03:50:57;98993.44;;;32.25;36.09
16525;BME280;8375;33.594;-117.718;2022-09-09T03:53:28;99008.56;;;32.01;36.51
16525;BME280;8375;33.594;-117.718;2022-09-09T03:55:57;99014.34;;;31.89;36.80
16525;BME280;8375;33.594;-117.718;2022-09-09T03:58:27;99015.56;;;31.78;37.70
16525;BME280;8375;33.594;-117.718;2022-09-09T04:00:57;99020.22;;;31.67;37.82
16525;BME280;8375;33.594;-117.718;2022-09-09T04:03:28;99027.88;;;31.55;38.06
16525;BME280;8375;33.594;-117.718;2022-09-09T04:05:58;99021.28;;;31.47;38.05
16525;BME280;8375;33.594;-117.718;2022-09-09T04:08:28;99016.25;;;31.40;38.38
16525;BME280;8375;33.594;-117.718;2022-09-09T04:10:58;99021.16;;;31.33;38.88
16525;BME280;8375;33.594;-117.718;2022-09-09T04:13:32;99019.63;;;31.27;38.87
16525;BME280;8375;33.594;-117.718;2022-09-09T04:16:02;99020.47;;;31.22;38.79
16525;BME280;8375;33.594;-117.718;2022-09-09T04:18:33;99017.59;;;31.13;39.14
16525;BME280;8375;33.594;-117.718;2022-09-09T04:21:02;99021.91;;;31.09;39.47
16525;BME280;8375;33.594;-117.718;2022-09-09T04:23:33;99013.97;;;30.99;39.72
16525;BME280;8375;33.594;-117.718;2022-09-09T04:26:04;99016.47;;;30.90;39.72
16525;BME280;8375;33.594;-117.718;2022-09-09T04:28:34;99007.97;;;30.83;40.44
16525;BME280;8375;33.594;-117.718;2022-09-09T04:31:07;99007.97;;;30.83;40.63
16525;BME280;8375;33.594;-117.718;2022-09-09T04:33:38;99001.59;;;30.79;40.63
16525;BME280;8375;33.594;-117.718;2022-09-09T04:36:07;99006.69;;;30.75;40.58
16525;BME280;8375;33.594;-117.718;2022-09-09T04:38:36;99004.06;;;30.70;40.09
16525;BME280;8375;33.594;-117.718;2022-09-09T04:41:04;98998.19;;;30.68;40.19
16525;BME280;8375;33.594;-117.718;2022-09-09T04:43:33;99000.66;;;30.64;40.45
16525;BME280;8375;33.594;-117.718;2022-09-09T04:46:02;99000.38;;;30.61;40.95
16525;BME280;8375;33.594;-117.718;2022-09-09T04:48:31;98998.13;;;30.73;41.39
16525;BME280;8375;33.594;-117.718;2022-09-09T04:51:03;98991.56;;;30.90;40.17
16525;BME280;8375;33.594;-117.718;2022-09-09T04:53:32;98996.88;;;30.95;40.21
16525;BME280;8375;33.594;-117.718;2022-09-09T04:56:03;98995.69;;;31.06;39.90
16525;BME280;8375;33.594;-117.718;2022-09-09T04:58:32;99001.72;;;30.93;40.32
16525;BME280;8375;33.594;-117.718;2022-09-09T05:01:08;99001.59;;;30.79;40.70
16525;BME280;8375;33.594;-117.718;2022-09-09T05:03:37;98999.22;;;30.72;40.98
16525;BME280;8375;33.594;-117.718;2022-09-09T05:06:10;98994.78;;;30.57;40.88
16525;BME280;8375;33.594;-117.718;2022-09-09T05:08:40;98989.00;;;30.44;41.79
16525;BME280;8375;33.594;-117.718;2022-09-09T05:11:16;98998.47;;;30.66;41.44
16525;BME280;8375;33.594;-117.718;2022-09-09T05:13:46;98999.03;;;30.93;41.12
16525;BME280;8375;33.594;-117.718;2022-09-09T05:16:16;99013.28;;;31.17;40.36
16525;BME280;8375;33.594;-117.718;2022-09-09T05:18:46;99003.72;;;31.36;40.65
16525;BME280;8375;33.594;-117.718;2022-09-09T05:21:19;98996.56;;;31.26;40.87
16525;BME280;8375;33.594;-117.718;2022-09-09T05:23:49;98981.22;;;31.07;41.00
16525;BME280;8375;33.594;-117.718;2022-09-09T05:26:20;98974.50;;;30.80;41.03
16525;BME280;8375;33.594;-117.718;2022-09-09T05:28:49;98968.53;;;30.64;41.47
16525;BME280;8375;33.594;-117.718;2022-09-09T05:31:18;98965.94;;;30.49;42.30
16525;BME280;8375;33.594;-117.718;2022-09-09T05:33:48;98961.47;;;30.39;43.35
16525;BME280;8375;33.594;-117.718;2022-09-09T05:36:20;98966.66;;;30.25;43.49
16525;BME280;8375;33.594;-117.718;2022-09-09T05:38:50;98972.88;;;30.15;43.38
16525;BME280;8375;33.594;-117.718;2022-09-09T05:41:20;98965.72;;;30.05;43.28
16525;BME280;8375;33.594;-117.718;2022-09-09T05:43:49;98956.09;;;30.04;43.51
16525;BME280;8375;33.594;-117.718;2022-09-09T05:46:18;98958.81;;;29.99;43.93
16525;BME280;8375;33.594;-117.718;2022-09-09T05:48:48;98958.34;;;29.81;43.91
16525;BME280;8375;33.594;-117.718;2022-09-09T05:51:20;98958.63;;;29.80;42.84
16525;BME280;8375;33.594;-117.718;2022-09-09T05:53:50;98961.84;;;29.77;43.44
16525;BME280;8375;33.594;-117.718;2022-09-09T05:56:23;98951.66;;;29.79;43.53
16525;BME280;8375;33.594;-117.718;2022-09-09T05:58:53;98951.97;;;29.77;43.83
16525;BME280;8375;33.594;-117.718;2022-09-09T06:01:24;98944.19;;;29.76;43.96
16525;BME280;8375;33.594;-117.718;2022-09-09T06:03:53;98949.88;;;29.69;44.33
16525;BME280;8375;33.594;-117.718;2022-09-09T06:06:25;98942.41;;;29.66;43.86
16525;BME280;8375;33.594;-117.718;2022-09-09T06:08:55;98939.47;;;29.62;44.91
16525;BME280;8375;33.594;-117.718;2022-09-09T06:11:25;98936.81;;;29.57;46.30
16525;BME280;8375;33.594;-117.718;2022-09-09T06:13:54;98932.53;;;29.56;45.67
16525;BME280;8375;33.594;-117.718;2022-09-09T06:16:24;98928.31;;;29.50;46.01
16525;BME280;8375;33.594;-117.718;2022-09-09T06:18:54;98923.50;;;29.47;46.70
16525;BME280;8375;33.594;-117.718;2022-09-09T06:21:26;98929.94;;;29.35;47.48
16525;BME280;8375;33.594;-117.718;2022-09-09T06:23:55;98925.69;;;29.29;46.51
16525;BME280;8375;33.594;-117.718;2022-09-09T06:26:25;98926.50;;;29.30;46.32
16525;BME280;8375;33.594;-117.718;2022-09-09T06:28:55;98920.34;;;29.29;46.26
16525;BME280;8375;33.594;-117.718;2022-09-09T06:31:26;98920.09;;;29.25;46.09
16525;BME280;8375;33.594;-117.718;2022-09-09T06:33:57;98921.97;;;29.25;46.54
16525;BME280;8375;33.594;-117.718;2022-09-09T06:36:28;98927.06;;;29.21;47.06
16525;BME280;8375;33.594;-117.718;2022-09-09T06:38:57;98930.53;;;29.17;46.78
16525;BME280;8375;33.594;-117.718;2022-09-09T06:41:28;98923.06;;;29.13;47.14
16525;BME280;8375;33.594;-117.718;2022-09-09T06:43:57;98924.41;;;29.11;47.18
16525;BME280;8375;33.594;-117.718;2022-09-09T06:46:26;98922.03;;;29.09;47.18
16525;BME280;8375;33.594;-117.718;2022-09-09T06:48:57;98920.69;;;29.07;47.53
16525;BME280;8375;33.594;-117.718;2022-09-09T06:51:31;98918.03;;;29.02;47.00
16525;BME280;8375;33.594;-117.718;2022-09-09T06:54:02;98915.09;;;28.98;46.74
16525;BME280;8375;33.594;-117.718;2022-09-09T06:56:33;98909.44;;;29.10;47.80
16525;BME280;8375;33.594;-117.718;2022-09-09T06:59:04;98907.50;;;29.31;48.11
16525;BME280;8375;33.594;-117.718;2022-09-09T07:01:35;98904.25;;;29.50;47.87
16525;BME280;8375;33.594;-117.718;2022-09-09T07:04:04;98904.19;;;29.60;47.46
16525;BME280;8375;33.594;-117.718;2022-09-09T07:06:37;98905.53;;;29.63;47.32
16525;BME280;8375;33.594;-117.718;2022-09-09T07:09:08;98901.50;;;29.65;47.30
16525;BME280;8375;33.594;-117.718;2022-09-09T07:11:39;98907.84;;;29.75;46.41
16525;BME280;8375;33.594;-117.718;2022-09-09T07:14:08;98892.59;;;29.80;46.73
16525;BME280;8375;33.594;-117.718;2022-09-09T07:16:39;98890.13;;;29.84;46.09
16525;BME280;8375;33.594;-117.718;2022-09-09T07:19:08;98896.50;;;29.93;45.98
16525;BME280;8375;33.594;-117.718;2022-09-09T07:21:38;98900.84;;;29.84;45.48
16525;BME280;8375;33.594;-117.718;2022-09-09T07:24:08;98903.13;;;29.61;46.56
16525;BME280;8375;33.594;-117.718;2022-09-09T07:26:38;98907.50;;;29.41;47.45
16525;BME280;8375;33.594;-117.718;2022-09-09T07:29:07;98905.44;;;29.18;47.39
16525;BME280;8375;33.594;-117.718;2022-09-09T07:31:37;98899.66;;;28.90;48.59
16525;BME280;8375;33.594;-117.718;2022-09-09T07:34:07;98900.97;;;28.72;48.85
16525;BME280;8375;33.594;-117.718;2022-09-09T07:36:38;98895.94;;;28.54;49.83
16525;BME280;8375;33.594;-117.718;2022-09-09T07:39:10;98894.88;;;28.50;49.12
16525;BME280;8375;33.594;-117.718;2022-09-09T07:41:40;98881.81;;;28.44;50.17
16525;BME280;8375;33.594;-117.718;2022-09-09T07:44:12;98878.91;;;28.35;50.47
16525;BME280;8375;33.594;-117.718;2022-09-09T07:46:41;98866.88;;;28.27;50.05
16525;BME280;8375;33.594;-117.718;2022-09-09T07:49:11;98868.47;;;28.23;51.25
16525;BME280;8375;33.594;-117.718;2022-09-09T07:51:43;98859.16;;;28.15;51.07
16525;BME280;8375;33.594;-117.718;2022-09-09T07:54:13;98863.13;;;28.07;50.89
16525;BME280;8375;33.594;-117.718;2022-09-09T07:56:43;98862.34;;;27.96;51.81
16525;BME280;8375;33.594;-117.718;2022-09-09T07:59:13;98859.38;;;27.88;52.77
16525;BME280;8375;33.594;-117.718;2022-09-09T08:01:43;98860.19;;;27.78;52.58
16525;BME280;8375;33.594;-117.718;2022-09-09T08:04:14;98859.91;;;27.79;52.50
16525;BME280;8375;33.594;-117.718;2022-09-09T08:06:45;98864.69;;;27.77;52.97
16525;BME280;8375;33.594;-117.718;2022-09-09T08:09:14;98861.50;;;27.75;53.00
16525;BME280;8375;33.594;-117.718;2022-09-09T08:11:44;98871.38;;;27.70;53.43
16525;BME280;8375;33.594;-117.718;2022-09-09T08:14:14;98861.25;;;27.66;53.08
16525;BME280;8375;33.594;-117.718;2022-09-09T08:16:44;98863.88;;;27.61;53.29
16525;BME280;8375;33.594;-117.718;2022-09-09T08:19:13;98862.53;;;27.59;53.35
16525;BME280;8375;33.594;-117.718;2022-09-09T08:21:44;98870.53;;;27.53;54.20
16525;BME280;8375;33.594;-117.718;2022-09-09T08:24:14;98870.25;;;27.50;54.58
16525;BME280;8375;33.594;-117.718;2022-09-09T08:26:43;98873.94;;;27.44;54.54
16525;BME280;8375;33.594;-117.718;2022-09-09T08:29:13;98872.34;;;27.43;54.50
16525;BME280;8375;33.594;-117.718;2022-09-09T08:31:43;98868.59;;;27.38;54.48
16525;BME280;8375;33.594;-117.718;2022-09-09T08:34:12;98858.47;;;27.35;54.01
16525;BME280;8375;33.594;-117.718;2022-09-09T08:36:42;98864.56;;;27.31;54.18
16525;BME280;8375;33.594;-117.718;2022-09-09T08:39:15;98855.50;;;27.27;53.75
16525;BME280;8375;33.594;-117.718;2022-09-09T08:41:59;98855.25;;;27.28;53.78
16525;BME280;8375;33.594;-117.718;2022-09-09T08:44:42;98857.63;;;27.30;53.38
16525;BME280;8375;33.594;-117.718;2022-09-09T08:47:21;98845.66;;;27.22;53.83
16525;BME280;8375;33.594;-117.718;2022-09-09T08:50:05;98827.22;;;27.15;54.35
16525;BME280;8375;33.594;-117.718;2022-09-09T08:52:40;98822.16;;;27.03;55.15
16525;BME280;8375;33.594;-117.718;2022-09-09T08:55:22;98825.34;;;27.05;55.00
16525;BME280;8375;33.594;-117.718;2022-09-09T08:57:54;98825.06;;;27.02;54.93
16525;BME280;8375;33.594;-117.718;2022-09-09T09:00:31;98822.16;;;27.03;55.45
16525;BME280;8375;33.594;-117.718;2022-09-09T09:03:09;98822.09;;;26.88;55.13
16525;BME280;8375;33.594;-117.718;2022-09-09T09:05:47;98811.59;;;26.76;56.74
16525;BME280;8375;33.594;-117.718;2022-09-09T09:08:26;98818.25;;;26.73;56.75
16525;BME280;8375;33.594;-117.718;2022-09-09T09:11:00;98819.03;;;26.69;57.20
16525;BME280;8375;33.594;-117.718;2022-09-09T09:13:35;98816.13;;;26.70;57.08
16525;BME280;8375;33.594;-117.718;2022-09-09T09:16:17;98817.56;;;26.93;56.58
16525;BME280;8375;33.594;-117.718;2022-09-09T09:18:47;98823.00;;;27.24;55.17
16525;BME280;8375;33.594;-117.718;2022-09-09T09:21:20;98812.38;;;27.45;54.62
16525;BME280;8375;33.594;-117.718;2022-09-09T09:23:54;98813.00;;;27.68;53.54
16525;BME280;8375;33.594;-117.718;2022-09-09T09:26:30;98819.91;;;27.53;54.06
16525;BME280;8375;33.594;-117.718;2022-09-09T09:29:03;98812.22;;;27.73;53.43
16525;BME280;8375;33.594;-117.718;2022-09-09T09:31:38;98812.22;;;27.83;52.55
16525;BME280;8375;33.594;-117.718;2022-09-09T09:34:09;98822.59;;;27.90;52.87
16525;BME280;8375;33.594;-117.718;2022-09-09T09:36:41;98819.16;;;27.89;52.43
16525;BME280;8375;33.594;-117.718;2022-09-09T09:39:22;98813.00;;;27.84;52.95
16525;BME280;8375;33.594;-117.718;2022-09-09T09:41:53;98816.47;;;27.79;53.43
16525;BME280;8375;33.594;-117.718;2022-09-09T09:44:25;98806.84;;;27.52;53.74
16525;BME280;8375;33.594;-117.718;2022-09-09T09:47:05;98812.63;;;27.28;55.33
16525;BME280;8375;33.594;-117.718;2022-09-09T09:49:34;98814.94;;;27.04;55.11
16525;BME280;8375;33.594;-117.718;2022-09-09T09:52:03;98810.66;;;26.98;55.11
16525;BME280;8375;33.594;-117.718;2022-09-09T09:54:34;98802.38;;;26.84;54.76
16525;BME280;8375;33.594;-117.718;2022-09-09T09:57:12;98796.44;;;26.76;55.00
16525;BME280;8375;33.594;-117.718;2022-09-09T09:59:41;98797.75;;;26.74;54.99
16525;BME280;8375;33.594;-117.718;2022-09-09T10:02:16;98799.63;;;26.73;56.03
16525;BME280;8375;33.594;-117.718;2022-09-09T10:04:45;98801.19;;;26.64;56.33
16525;BME280;8375;33.594;-117.718;2022-09-09T10:07:18;98790.25;;;26.65;56.62
16525;BME280;8375;33.594;-117.718;2022-09-09T10:09:50;98801.44;;;26.62;56.83
16525;BME280;8375;33.594;-117.718;2022-09-09T10:12:30;98800.59;;;26.52;57.20
16525;BME280;8375;33.594;-117.718;2022-09-09T10:15:11;98798.97;;;26.50;57.42
16525;BME280;8375;33.594;-117.718;2022-09-09T10:17:54;98796.00;;;26.42;57.97
16525;BME280;8375;33.594;-117.718;2022-09-09T10:20:37;98800.50;;;26.41;58.10
16525;BME280;8375;33.594;-117.718;2022-09-09T10:23:21;98808.19;;;26.38;58.31
16525;BME280;8375;33.594;-117.718;2022-09-09T10:26:07;98800.97;;;26.33;58.64
16525;BME280;8375;33.594;-117.718;2022-09-09T10:28:55;98810.00;;;26.32;59.08
16525;BME280;8375;33.594;-117.718;2022-09-09T10:31:32;98798.28;;;26.28;59.41
16525;BME280;8375;33.594;-117.718;2022-09-09T10:34:15;98800.66;;;26.24;59.90
16525;BME280;8375;33.594;-117.718;2022-09-09T10:36:49;98801.47;;;26.25;60.24
16525;BME280;8375;33.594;-117.718;2022-09-09T10:39:32;98797.47;;;26.22;59.57
16525;BME280;8375;33.594;-117.718;2022-09-09T10:42:05;98794.53;;;26.24;59.26
16525;BME280;8375;33.594;-117.718;2022-09-09T10:45:10;98793.66;;;26.13;60.09
16525;BME280;8375;33.594;-117.718;2022-09-09T10:48:06;98784.81;;;26.07;59.91
16525;BME280;8375;33.594;-117.718;2022-09-09T10:50:52;98793.84;;;26.06;60.38
16525;BME280;8375;33.594;-117.718;2022-09-09T10:53:33;98799.09;;;25.96;60.85
16525;BME280;8375;33.594;-117.718;2022-09-09T10:56:07;98807.38;;;25.99;61.26
16525;BME280;8375;33.594;-117.718;2022-09-09T10:58:40;98807.53;;;25.87;60.92
16525;BME280;8375;33.594;-117.718;2022-09-09T11:01:15;98816.47;;;25.76;60.06
16525;BME280;8375;33.594;-117.718;2022-09-09T11:03:51;98816.13;;;25.67;60.53
16525;BME280;8375;33.594;-117.718;2022-09-09T11:06:27;98825.41;;;25.65;60.83
16525;BME280;8375;33.594;-117.718;2022-09-09T11:08:58;98814.09;;;25.74;60.64
16525;BME280;8375;33.594;-117.718;2022-09-09T11:11:33;98810.09;;;25.77;61.29
16525;BME280;8375;33.594;-117.718;2022-09-09T11:14:08;98803.22;;;25.81;61.12
16525;BME280;8375;33.594;-117.718;2022-09-09T11:16:44;98802.19;;;25.82;61.16
16525;BME280;8375;33.594;-117.718;2022-09-09T11:19:18;98807.50;;;25.82;61.25
16525;BME280;8375;33.594;-117.718;2022-09-09T11:21:50;98806.47;;;25.88;60.63
16525;BME280;8375;33.594;-117.718;2022-09-09T11:24:23;98804.13;;;25.92;59.54
16525;BME280;8375;33.594;-117.718;2022-09-09T11:26:57;98803.31;;;25.91;59.32
16525;BME280;8375;33.594;-117.718;2022-09-09T11:29:44;98816.56;;;25.86;60.47
16525;BME280;8375;33.594;-117.718;2022-09-09T11:32:34;98811.78;;;25.88;59.99
16525;BME280;8375;33.594;-117.718;2022-09-09T11:35:23;98817.75;;;26.01;56.52
16525;BME280;8375;33.594;-117.718;2022-09-09T11:38:23;98817.34;;;26.14;55.28
16525;BME280;8375;33.594;-117.718;2022-09-09T11:41:02;98819.56;;;26.28;54.74
16525;BME280;8375;33.594;-117.718;2022-09-09T11:43:39;98827.59;;;26.38;54.18
16525;BME280;8375;33.594;-117.718;2022-09-09T11:46:09;98823.69;;;26.46;53.38
16525;BME280;8375;33.594;-117.718;2022-09-09T11:48:41;98818.16;;;26.53;53.07
16525;BME280;8375;33.594;-117.718;2022-09-09T11:51:13;98814.25;;;26.71;51.15
16525;BME280;8375;33.594;-117.718;2022-09-09T11:53:51;98818.97;;;27.06;49.53
16525;BME280;8375;33.594;-117.718;2022-09-09T11:56:28;98813.69;;;27.27;49.40
16525;BME280;8375;33.594;-117.718;2022-09-09T11:59:00;98818.59;;;27.56;48.01
16525;BME280;8375;33.594;-117.718;2022-09-09T12:01:38;98815.97;;;28.18;46.07
16525;BME280;8375;33.594;-117.718;2022-09-09T12:06:59;98824.28;;;29.03;43.88
16525;BME280;8375;33.594;-117.718;2022-09-09T12:09:45;98832.19;;;29.29;42.88
16525;BME280;8375;33.594;-117.718;2022-09-09T12:12:33;98818.25;;;29.37;42.88
16525;BME280;8375;33.594;-117.718;2022-09-09T12:15:24;98815.50;;;29.53;42.36
16525;BME280;8375;33.594;-117.718;2022-09-09T12:17:56;98817.31;;;29.63;41.88
16525;BME280;8375;33.594;-117.718;2022-09-09T12:20:32;98814.34;;;29.64;43.19
16525;BME280;8375;33.594;-117.718;2022-09-09T12:23:19;98811.22;;;29.52;42.90
16525;BME280;8375;33.594;-117.718;2022-09-09T12:26:23;98813.44;;;29.39;42.65
16525;BME280;8375;33.594;-117.718;2022-09-09T12:29:06;98805.22;;;29.25;42.79
16525;BME280;8375;33.594;-117.718;2022-09-09T12:31:43;98802.84;;;29.19;43.40
16525;BME280;8375;33.594;-117.718;2022-09-09T12:34:16;98811.47;;;29.05;43.80
16525;BME280;8375;33.594;-117.718;2022-09-09T12:36:54;98806.03;;;29.21;44.04
16525;BME280;8375;33.594;-117.718;2022-09-09T12:39:31;98822.03;;;29.26;42.90
16525;BME280;8375;33.594;-117.718;2022-09-09T12:42:02;98809.19;;;29.33;42.82
16525;BME280;8375;33.594;-117.718;2022-09-09T12:44:31;98827.88;;;29.38;43.70
16525;BME280;8375;33.594;-117.718;2022-09-09T12:47:01;98825.75;;;29.30;43.23
16525;BME280;8375;33.594;-117.718;2022-09-09T12:49:33;98830.91;;;29.21;43.88
16525;BME280;8375;33.594;-117.718;2022-09-09T12:52:07;98829.81;;;29.22;43.29
16525;BME280;8375;33.594;-117.718;2022-09-09T12:54:37;98831.72;;;29.11;43.96
16525;BME280;8375;33.594;-117.718;2022-09-09T12:57:09;98830.16;;;29.05;43.57
16525;BME280;8375;33.594;-117.718;2022-09-09T12:59:41;98840.16;;;29.34;44.10
16525;BME280;8375;33.594;-117.718;2022-09-09T13:02:18;98829.69;;;29.88;43.19
16525;BME280;8375;33.594;-117.718;2022-09-09T13:04:47;98836.00;;;30.03;42.78
16525;BME280;8375;33.594;-117.718;2022-09-09T13:07:19;98823.44;;;30.33;42.15
16525;BME280;8375;33.594;-117.718;2022-09-09T13:09:49;98830.22;;;30.49;41.89
16525;BME280;8375;33.594;-117.718;2022-09-09T13:12:19;98830.66;;;30.62;42.07
16525;BME280;8375;33.594;-117.718;2022-09-09T13:14:51;98832.81;;;30.84;41.46
16525;BME280;8375;33.594;-117.718;2022-09-09T13:17:22;98834.63;;;30.88;41.65